<?xml version="1.0" encoding="UTF-8" standalone="no" ?>
<gpx xmlns="http://www.topografix.com/GPX/1/1" xmlns:xsi="http://www.w3.org/2001/XMLSchema-instance" xsi:schemaLocation="http://www.topografix.com/GPX/1/1 http://www.topografix.com/GPX/1/1/gpx.xsd" version="1.1" creator="VisuGPX - https://www.visugpx.com">
  <metadata>
    <name>début transmontdo</name>
    <desc><![CDATA[tombé sur le tracé de la transmontdo je l'ai suivie un peu, et un peu de jardinage]]></desc>
  </metadata>
  <trk>
    <name><![CDATA[ACTIVE LOG134942]]></name>
    <trkseg>
      <trkpt lat="45.86982" lon="4.81984">
        <ele>219.098</ele>
        <time>2012-05-19T11:49:41Z</time>
      </trkpt>
      <trkpt lat="45.86978" lon="4.81989">
        <ele>218.667</ele>
        <time>2012-05-19T11:50:20Z</time>
      </trkpt>
      <trkpt lat="45.86975" lon="4.81989">
        <ele>220.112</ele>
        <time>2012-05-19T11:50:25Z</time>
      </trkpt>
      <trkpt lat="45.86977" lon="4.81986">
        <ele>222.986</ele>
        <time>2012-05-19T11:50:34Z</time>
      </trkpt>
      <trkpt lat="45.86984" lon="4.8198">
        <ele>222.141</ele>
        <time>2012-05-19T11:50:42Z</time>
      </trkpt>
      <trkpt lat="45.86985" lon="4.8199">
        <ele>222.755</ele>
        <time>2012-05-19T11:51:29Z</time>
      </trkpt>
      <trkpt lat="45.86977" lon="4.81998">
        <ele>220.909</ele>
        <time>2012-05-19T11:51:59Z</time>
      </trkpt>
      <trkpt lat="45.86989" lon="4.81986">
        <ele>220.155</ele>
        <time>2012-05-19T11:52:58Z</time>
      </trkpt>
      <trkpt lat="45.86987" lon="4.81978">
        <ele>220.609</ele>
        <time>2012-05-19T11:53:12Z</time>
      </trkpt>
      <trkpt lat="45.86984" lon="4.81981">
        <ele>220.593</ele>
        <time>2012-05-19T11:53:15Z</time>
      </trkpt>
      <trkpt lat="45.86982" lon="4.81987">
        <ele>220.845</ele>
        <time>2012-05-19T11:53:24Z</time>
      </trkpt>
      <trkpt lat="45.86979" lon="4.81987">
        <ele>221.198</ele>
        <time>2012-05-19T11:53:29Z</time>
      </trkpt>
      <trkpt lat="45.86978" lon="4.81981">
        <ele>221.473</ele>
        <time>2012-05-19T11:53:36Z</time>
      </trkpt>
      <trkpt lat="45.86981" lon="4.81982">
        <ele>223.896</ele>
        <time>2012-05-19T11:53:41Z</time>
      </trkpt>
      <trkpt lat="45.8698" lon="4.81991">
        <ele>223.811</ele>
        <time>2012-05-19T11:53:46Z</time>
      </trkpt>
      <trkpt lat="45.86977" lon="4.81983">
        <ele>225.249</ele>
        <time>2012-05-19T11:53:54Z</time>
      </trkpt>
      <trkpt lat="45.86981" lon="4.81993">
        <ele>225.836</ele>
        <time>2012-05-19T11:54:06Z</time>
      </trkpt>
      <trkpt lat="45.86978" lon="4.81995">
        <ele>226.739</ele>
        <time>2012-05-19T11:54:15Z</time>
      </trkpt>
      <trkpt lat="45.86977" lon="4.81993">
        <ele>226.469</ele>
        <time>2012-05-19T11:54:17Z</time>
      </trkpt>
      <trkpt lat="45.86976" lon="4.8199">
        <ele>226.565</ele>
        <time>2012-05-19T11:54:19Z</time>
      </trkpt>
      <trkpt lat="45.86976" lon="4.81985">
        <ele>226.593</ele>
        <time>2012-05-19T11:54:24Z</time>
      </trkpt>
      <trkpt lat="45.86982" lon="4.81983">
        <ele>226.566</ele>
        <time>2012-05-19T11:54:27Z</time>
      </trkpt>
      <trkpt lat="45.86981" lon="4.81996">
        <ele>225.529</ele>
        <time>2012-05-19T11:54:36Z</time>
      </trkpt>
      <trkpt lat="45.86981" lon="4.81998">
        <ele>225.337</ele>
        <time>2012-05-19T11:54:37Z</time>
      </trkpt>
      <trkpt lat="45.86978" lon="4.82003">
        <ele>224.933</ele>
        <time>2012-05-19T11:54:40Z</time>
      </trkpt>
    </trkseg>
  </trk>
</gpx>